createdAt,value
2018-05-02T00:01:53.395Z,99236
2018-05-02T00:03:56.558Z,99235
2018-05-02T00:06:00.478Z,99238
2018-05-02T00:08:04.406Z,99238
2018-05-02T00:10:07.576Z,99236
2018-05-02T00:12:11.195Z,99235
2018-05-02T00:14:14.386Z,99235
2018-05-02T00:16:17.547Z,99234
2018-05-02T00:18:20.712Z,99245
2018-05-02T00:20:23.871Z,99240
2018-05-02T00:22:27.791Z,99235
2018-05-02T00:24:31.722Z,99247
2018-05-02T00:26:35.659Z,99244
2018-05-02T00:28:39.643Z,99244
2018-05-02T00:30:42.759Z,99247
2018-05-02T00:32:45.915Z,99254
2018-05-02T00:34:49.116Z,99256
2018-05-02T00:36:53.028Z,99250
2018-05-02T00:38:56.959Z,99262
2018-05-02T00:41:00.978Z,99257
2018-05-02T00:43:04.910Z,99253
2018-05-02T00:45:08.867Z,99253
2018-05-02T00:47:12.026Z,99256
2018-05-02T00:49:18.948Z,99250
2018-05-02T00:51:22.447Z,99245
2018-05-02T00:53:26.366Z,99247
2018-05-02T00:55:30.292Z,99252
2018-05-02T00:57:34.223Z,99250
2018-05-02T00:59:38.149Z,99255
2018-05-02T01:01:43.678Z,99255
2018-05-02T01:03:49.691Z,99252
2018-05-02T01:05:54.726Z,99247
2018-05-02T01:07:59.757Z,99251
2018-05-02T01:10:05.583Z,99256
2018-05-02T01:12:10.426Z,99253
2018-05-02T01:14:15.542Z,99249
2018-05-02T01:16:21.724Z,99249
2018-05-02T01:18:26.709Z,99253
2018-05-02T01:20:32.283Z,99249
2018-05-02T01:22:37.344Z,99259
2018-05-02T01:24:42.171Z,99249
2018-05-02T01:26:48.514Z,99245
2018-05-02T01:28:53.700Z,99252
2018-05-02T01:30:58.551Z,99262
2018-05-02T01:33:03.439Z,99257
2018-05-02T01:35:09.483Z,99257
2018-05-02T01:37:14.839Z,99260
2018-05-02T01:39:19.803Z,99254
2018-05-02T01:41:24.713Z,99254
2018-05-02T01:43:29.299Z,99243
2018-05-02T01:45:34.526Z,99242
2018-05-02T01:47:39.769Z,99240
2018-05-02T01:49:44.866Z,99241
2018-05-02T01:51:49.769Z,99229
2018-05-02T01:53:54.595Z,99241
2018-05-02T01:55:59.599Z,99232
2018-05-02T01:58:05.155Z,99225
2018-05-02T02:00:14.747Z,99232
2018-05-02T02:02:18.379Z,99232
2018-05-02T02:04:23.742Z,99230
2018-05-02T02:06:28.502Z,99243
2018-05-02T02:08:33.046Z,99238
2018-05-02T02:10:37.695Z,99230
2018-05-02T02:12:41.872Z,99235
2018-05-02T02:14:46.361Z,99230
2018-05-02T02:16:51.577Z,99231
2018-05-02T02:18:56.975Z,99234
2018-05-02T02:21:00.258Z,99222
2018-05-02T02:23:04.606Z,99219
2018-05-02T02:25:07.835Z,99217
2018-05-02T02:27:11.031Z,99207
2018-05-02T02:29:14.200Z,99208
2018-05-02T02:31:18.144Z,99212
2018-05-02T02:33:21.301Z,99211
2018-05-02T02:35:24.455Z,99206
2018-05-02T02:37:28.378Z,99213
2018-05-02T02:39:32.314Z,99216
2018-05-02T02:41:35.470Z,99213
2018-05-02T02:43:38.658Z,99206
2018-05-02T02:45:41.824Z,99208
2018-05-02T02:47:45.759Z,99205
2018-05-02T02:49:48.915Z,99198
2018-05-02T02:51:52.083Z,99196
2018-05-02T02:53:55.256Z,99194
2018-05-02T02:55:58.410Z,99188
2018-05-02T02:58:01.571Z,99193
2018-05-02T03:00:04.738Z,99193
2018-05-02T03:02:07.902Z,99194
2018-05-02T03:04:11.838Z,99183
2018-05-02T03:06:15.342Z,99187
2018-05-02T03:08:19.263Z,99180
2018-05-02T03:10:23.187Z,99183
2018-05-02T03:12:27.126Z,99187
2018-05-02T03:14:30.635Z,99179
2018-05-02T03:16:34.559Z,99181
2018-05-02T03:18:38.631Z,99186
2018-05-02T03:20:41.785Z,99189
2018-05-02T03:22:45.740Z,99190
2018-05-02T03:24:48.905Z,99196
2018-05-02T03:26:52.079Z,99195
2018-05-02T03:28:55.264Z,99192
2018-05-02T03:30:58.424Z,99193
2018-05-02T03:33:01.586Z,99196
2018-05-02T03:35:04.747Z,99192
2018-05-02T03:37:07.911Z,99197
2018-05-02T03:39:11.071Z,99200
2018-05-02T03:41:14.226Z,99203
2018-05-02T03:43:17.397Z,99202
2018-05-02T03:45:21.343Z,99204
2018-05-02T03:47:24.566Z,99202
2018-05-02T03:49:27.788Z,99202
2018-05-02T03:51:30.943Z,99206
2018-05-02T03:53:34.862Z,99212
2018-05-02T03:55:39.807Z,99212
2018-05-02T03:57:44.210Z,99203
2018-05-02T04:00:06.930Z,99208
2018-05-02T04:02:29.666Z,99204
2018-05-02T04:04:52.199Z,99216
2018-05-02T04:07:17.860Z,99210
2018-05-02T04:09:22.352Z,99213
2018-05-02T04:11:26.869Z,99226
2018-05-02T04:13:31.453Z,99227
2018-05-02T04:15:35.887Z,99223
2018-05-02T04:17:39.704Z,99208
2018-05-02T04:19:43.627Z,99214
2018-05-02T04:21:47.586Z,99218
2018-05-02T04:23:50.743Z,99219
2018-05-02T04:25:53.903Z,99214
2018-05-02T04:27:57.087Z,99212
2018-05-02T04:30:01.020Z,99226
2018-05-02T04:32:04.941Z,99218
2018-05-02T04:34:08.871Z,99228
2018-05-02T04:36:12.031Z,99237
2018-05-02T04:38:15.197Z,99244
2018-05-02T04:40:18.350Z,99238
2018-05-02T04:42:21.544Z,99240
2018-05-02T04:44:24.702Z,99235
2018-05-02T04:46:28.635Z,99234
2018-05-02T04:48:32.554Z,99238
2018-05-02T04:50:36.515Z,99234
2018-05-02T04:52:39.952Z,99243
2018-05-02T04:54:43.070Z,99245
2018-05-02T04:56:46.229Z,99240
2018-05-02T04:58:49.382Z,99249
2018-05-02T05:00:52.546Z,99255
2018-05-02T05:02:55.710Z,99256
2018-05-02T05:04:58.875Z,99255
2018-05-02T05:07:02.459Z,99254
2018-05-02T05:09:06.792Z,99253
2018-05-02T05:11:10.726Z,99250
2018-05-02T05:13:13.878Z,99245
2018-05-02T05:15:17.055Z,99241
2018-05-02T05:17:20.238Z,99234
2018-05-02T05:19:24.166Z,99242
2018-05-02T05:21:28.099Z,99244
2018-05-02T05:23:31.268Z,99244
2018-05-02T05:25:34.410Z,99231
2018-05-02T05:27:38.333Z,99243
2018-05-02T05:29:42.277Z,99246
2018-05-02T05:31:45.407Z,99244
2018-05-02T05:33:48.540Z,99243
2018-05-02T05:35:51.703Z,99244
2018-05-02T05:37:54.863Z,99243
2018-05-02T05:39:58.004Z,99232
2018-05-02T05:42:01.137Z,99249
2018-05-02T05:44:04.301Z,99246
2018-05-02T05:46:08.198Z,99232
2018-05-02T05:48:11.336Z,99243
2018-05-02T05:50:15.263Z,99237
2018-05-02T05:52:19.171Z,99234
2018-05-02T05:54:22.343Z,99233
2018-05-02T05:56:25.502Z,99233
2018-05-02T05:58:29.436Z,99232
2018-05-02T06:00:32.578Z,99241
2018-05-02T06:02:35.742Z,99240
2018-05-02T06:04:39.668Z,99227
2018-05-02T06:06:43.632Z,99246
2018-05-02T06:08:46.733Z,99241
2018-05-02T06:10:49.885Z,99218
2018-05-02T06:12:53.015Z,99228
2018-05-02T06:14:56.942Z,99226
2018-05-02T06:17:00.848Z,99224
2018-05-02T06:19:04.006Z,99228
2018-05-02T06:21:07.408Z,99227
2018-05-02T06:23:10.546Z,99218
2018-05-02T06:25:14.455Z,99214
2018-05-02T06:27:17.927Z,99226
2018-05-02T06:29:21.824Z,99215
2018-05-02T06:31:24.954Z,99219
2018-05-02T06:33:28.895Z,99210
2018-05-02T06:35:32.804Z,99217
2018-05-02T06:37:36.848Z,99216
2018-05-02T06:39:40.020Z,99211
2018-05-02T06:41:43.160Z,99208
2018-05-02T06:45:54.040Z,99214
2018-05-02T06:47:57.183Z,99206
2018-05-02T06:50:01.116Z,99202
2018-05-02T06:52:04.291Z,99199
2018-05-02T06:54:07.422Z,99192
2018-05-02T06:56:11.418Z,99184
2018-05-02T06:58:14.708Z,99199
2018-05-02T07:00:17.952Z,99191
2018-05-02T07:02:21.112Z,99196
2018-05-02T07:04:24.247Z,99197
2018-05-02T07:06:27.495Z,99186
2018-05-02T07:08:31.430Z,99194
2018-05-02T07:10:34.595Z,99190
2018-05-02T07:12:37.728Z,99193
2018-05-02T07:14:43.355Z,99182
2018-05-02T07:16:47.792Z,99188
2018-05-02T07:18:52.617Z,99193
2018-05-02T07:20:56.658Z,99187
2018-05-02T07:23:01.171Z,99186
2018-05-02T07:25:05.919Z,99172
2018-05-02T07:27:10.577Z,99185
2018-05-02T07:29:15.134Z,99176
2018-05-02T07:31:19.967Z,99178
2018-05-02T07:33:24.730Z,99187
2018-05-02T07:35:29.419Z,99181
2018-05-02T07:37:33.923Z,99180
2018-05-02T07:39:38.586Z,99183
2018-05-02T07:41:43.904Z,99178
2018-05-02T07:43:48.406Z,99185
2018-05-02T07:45:53.001Z,99185
2018-05-02T07:47:57.702Z,99181
2018-05-02T07:50:02.335Z,99181
2018-05-02T07:52:07.195Z,99182
2018-05-02T07:54:11.883Z,99191
2018-05-02T07:56:16.563Z,99185
2018-05-02T07:58:21.171Z,99181
2018-05-02T08:00:26.345Z,99180
2018-05-02T08:02:30.922Z,99173
2018-05-02T08:04:35.407Z,99174
2018-05-02T08:06:42.565Z,99184
2018-05-02T08:08:47.614Z,99183
2018-05-02T08:10:52.899Z,99176
2018-05-02T08:12:57.466Z,99170
2018-05-02T08:15:02.262Z,99183
2018-05-02T08:17:06.654Z,99184
2018-05-02T08:19:11.804Z,99182
2018-05-02T08:21:17.119Z,99180
2018-05-02T08:23:22.709Z,99170
2018-05-02T08:25:29.087Z,99168
2018-05-02T08:27:34.840Z,99168
2018-05-02T08:29:39.212Z,99154
2018-05-02T08:31:44.005Z,99161
2018-05-02T08:33:48.482Z,99165
2018-05-02T08:35:53.889Z,99160
2018-05-02T08:37:58.486Z,99156
2018-05-02T08:40:03.138Z,99158
2018-05-02T08:42:07.647Z,99153
2018-05-02T08:44:12.999Z,99150
2018-05-02T08:46:18.268Z,99150
2018-05-02T08:48:23.479Z,99147
2018-05-02T08:50:28.183Z,99137
2018-05-02T08:52:32.717Z,99132
2018-05-02T08:54:37.354Z,99134
2018-05-02T08:56:42.655Z,99137
2018-05-02T08:58:47.128Z,99146
2018-05-02T09:00:52.444Z,99131
2018-05-02T09:02:56.534Z,99139
2018-05-02T09:05:00.904Z,99139
2018-05-02T09:07:05.475Z,99132
2018-05-02T09:09:10.122Z,99129
2018-05-02T09:11:15.038Z,99136
2018-05-02T09:13:19.603Z,99126
2018-05-02T09:15:24.190Z,99125
2018-05-02T09:17:28.784Z,99130
2018-05-02T09:19:33.417Z,99125
2018-05-02T09:21:38.011Z,99124
2018-05-02T09:23:42.611Z,99120
2018-05-02T09:25:47.332Z,99122
2018-05-02T09:27:51.815Z,99119
2018-05-02T09:29:57.391Z,99118
2018-05-02T09:32:00.572Z,99126
2018-05-02T09:34:03.738Z,99115
2018-05-02T09:36:06.917Z,99111
2018-05-02T09:38:10.090Z,99117
2018-05-02T09:40:13.263Z,99108
2018-05-02T09:42:16.405Z,99112
2018-05-02T09:44:19.577Z,99116
2018-05-02T09:46:22.731Z,99110
2018-05-02T09:48:26.846Z,99098
2018-05-02T09:50:30.771Z,99092
2018-05-02T09:52:33.911Z,99093
2018-05-02T09:54:37.851Z,99088
2018-05-02T09:56:41.041Z,99086
2018-05-02T09:58:44.966Z,99088
2018-05-02T10:00:48.155Z,99082
2018-05-02T10:02:51.298Z,99081
2018-05-02T10:04:54.475Z,99085
2018-05-02T10:06:57.647Z,99088
2018-05-02T10:09:00.811Z,99086
2018-05-02T10:11:03.975Z,99078
2018-05-02T10:13:07.121Z,99086
2018-05-02T10:15:11.032Z,99085
2018-05-02T10:17:14.982Z,99092
2018-05-02T10:19:18.127Z,99070
2018-05-02T10:21:21.293Z,99071
2018-05-02T10:23:25.229Z,99078
2018-05-02T10:25:28.371Z,99091
2018-05-02T10:27:31.511Z,99076
2018-05-02T10:29:35.454Z,99084
2018-05-02T10:31:39.354Z,99077
2018-05-02T10:33:42.502Z,99083
2018-05-02T10:35:45.671Z,99079
2018-05-02T10:37:49.580Z,99083
2018-05-02T10:39:52.724Z,99076
2018-05-02T10:41:56.662Z,99085
2018-05-02T10:43:59.805Z,99076
2018-05-02T10:46:02.974Z,99062
2018-05-02T10:48:06.123Z,99068
2018-05-02T10:50:09.271Z,99061
2018-05-02T10:52:13.214Z,99065
2018-05-02T10:54:17.214Z,99063
2018-05-02T10:56:21.887Z,99067
2018-05-02T10:58:25.069Z,99070
2018-05-02T11:00:28.243Z,99056
2018-05-02T11:02:31.399Z,99055
2018-05-02T11:04:35.305Z,99052
2018-05-02T11:06:40.274Z,99053
2018-05-02T11:08:43.522Z,99060
2018-05-02T11:10:46.999Z,99061
2018-05-02T11:12:50.311Z,99056
2018-05-02T11:14:53.493Z,99061
2018-05-02T11:16:57.431Z,99043
2018-05-02T11:19:00.602Z,99049
2018-05-02T11:21:03.734Z,99052
2018-05-02T11:23:06.908Z,99055
2018-05-02T11:25:10.051Z,99059
2018-05-02T11:27:14.699Z,99044
2018-05-02T11:29:17.868Z,99050
2018-05-02T11:31:21.011Z,99047
2018-05-02T11:33:25.876Z,99029
2018-05-02T11:35:29.806Z,99037
2018-05-02T11:37:33.847Z,99041
2018-05-02T11:39:36.987Z,99054
2018-05-02T11:41:40.229Z,99037
2018-05-02T11:43:43.356Z,99034
2018-05-02T11:45:47.270Z,99036
2018-05-02T11:47:50.443Z,99034
2018-05-02T11:49:53.595Z,99036
2018-05-02T11:51:57.554Z,99025
2018-05-02T11:54:01.464Z,99033
2018-05-02T11:56:05.382Z,99031
2018-05-02T11:58:09.286Z,99023
2018-05-02T12:00:12.462Z,99017
2018-05-02T12:02:15.630Z,99014
2018-05-02T12:04:18.772Z,99012
2018-05-02T12:06:21.959Z,99016
2018-05-02T12:08:25.140Z,99018
2018-05-02T12:10:28.364Z,99008
2018-05-02T12:12:32.267Z,99009
2018-05-02T12:14:36.182Z,99008
2018-05-02T12:16:40.140Z,99004
2018-05-02T12:18:43.335Z,98998
2018-05-02T12:20:47.246Z,99006
2018-05-02T12:22:51.199Z,98998
2018-05-02T12:24:54.391Z,99013
2018-05-02T12:26:58.307Z,99000
2018-05-02T12:29:01.486Z,99007
2018-05-02T12:31:04.649Z,99011
2018-05-02T12:33:07.824Z,99001
2018-05-02T12:35:11.735Z,99002
2018-05-02T12:37:14.906Z,99008
2018-05-02T12:39:18.110Z,99009
2018-05-02T12:41:21.264Z,99003
2018-05-02T12:43:25.912Z,98995
2018-05-02T12:45:30.599Z,98982
2018-05-02T12:47:33.742Z,98992
2018-05-02T12:49:36.937Z,98980
2018-05-02T12:51:40.091Z,98987
2018-05-02T12:53:43.243Z,98982
2018-05-02T12:55:46.423Z,98985
2018-05-02T12:57:50.359Z,98977
2018-05-02T12:59:53.502Z,98980
2018-05-02T13:01:56.674Z,98983
2018-05-02T13:03:59.827Z,98968
2018-05-02T13:06:03.003Z,98973
2018-05-02T13:08:06.257Z,98970
2018-05-02T13:10:09.342Z,98968
2018-05-02T13:12:12.516Z,98963
2018-05-02T13:14:15.663Z,98958
2018-05-02T13:16:18.833Z,98954
2018-05-02T13:18:22.017Z,98947
2018-05-02T13:20:25.951Z,98951
2018-05-02T13:22:29.910Z,98948
2018-05-02T13:24:33.154Z,98939
2018-05-02T13:26:36.324Z,98936
2018-05-02T13:28:39.466Z,98936
2018-05-02T13:30:42.611Z,98934
2018-05-02T13:32:46.774Z,98929
2018-05-02T13:34:49.970Z,98934
2018-05-02T13:36:53.184Z,98934
2018-05-02T13:38:56.383Z,98925
2018-05-02T13:40:59.555Z,98931
2018-05-02T13:43:03.497Z,98936
2018-05-02T13:45:07.454Z,98925
2018-05-02T13:47:10.680Z,98938
2018-05-02T13:49:13.903Z,98932
2018-05-02T13:51:17.791Z,98927
2018-05-02T13:53:20.960Z,98926
2018-05-02T13:55:25.657Z,98919
2018-05-02T13:57:28.807Z,98917
2018-05-02T13:59:31.988Z,98917
2018-05-02T14:01:35.131Z,98914
2018-05-02T14:03:38.278Z,98916
2018-05-02T14:05:41.579Z,98907
2018-05-02T14:07:45.493Z,98901
2018-05-02T14:09:49.398Z,98899
2018-05-02T14:11:53.335Z,98904
2018-05-02T14:13:57.253Z,98898
2018-05-02T14:16:00.433Z,98904
2018-05-02T14:18:03.591Z,98902
2018-05-02T14:20:07.498Z,98901
2018-05-02T14:22:11.448Z,98898
2018-05-02T14:24:14.632Z,98892
2018-05-02T14:26:18.601Z,98892
2018-05-02T14:28:21.778Z,98903
2018-05-02T14:30:25.727Z,98892
2018-05-02T14:32:28.906Z,98898
2018-05-02T14:34:32.867Z,98888
2018-05-02T14:36:36.047Z,98895
2018-05-02T14:38:39.982Z,98884
2018-05-02T14:40:43.922Z,98881
2018-05-02T14:42:47.096Z,98883
2018-05-02T14:44:51.032Z,98878
2018-05-02T14:46:54.966Z,98873
2018-05-02T14:48:58.135Z,98879
2018-05-02T14:51:01.306Z,98879
2018-05-02T14:53:04.490Z,98886
2018-05-02T14:55:08.419Z,98888
2018-05-02T14:57:11.591Z,98891
2018-05-02T14:59:15.530Z,98886
2018-05-02T15:01:18.704Z,98897
2018-05-02T15:03:22.104Z,98887
2018-05-02T15:05:25.711Z,98893
2018-05-02T15:07:29.502Z,98891
2018-05-02T15:09:33.515Z,98891
2018-05-02T15:11:36.770Z,98895
2018-05-02T15:13:39.944Z,98896
2018-05-02T15:15:43.907Z,98888
2018-05-02T15:17:47.097Z,98893
2018-05-02T15:19:50.287Z,98886
2018-05-02T15:21:54.221Z,98895
2018-05-02T15:23:58.147Z,98892
2018-05-02T15:26:02.095Z,98884
2018-05-02T15:28:05.277Z,98886
2018-05-02T15:30:09.227Z,98884
2018-05-02T15:32:12.413Z,98884
2018-05-02T15:34:16.365Z,98881
2018-05-02T15:36:19.550Z,98885
2018-05-02T15:38:23.486Z,98883
2018-05-02T15:40:26.897Z,98878
2018-05-02T15:42:29.940Z,98883
2018-05-02T15:44:33.104Z,98879
2018-05-02T15:46:37.133Z,98876
2018-05-02T15:48:40.351Z,98885
2018-05-02T15:50:43.523Z,98882
2018-05-02T15:52:46.686Z,98880
2018-05-02T15:54:49.912Z,98888
2018-05-02T15:56:53.095Z,98888
2018-05-02T15:58:56.405Z,98876
2018-05-02T16:01:01.060Z,98873
2018-05-02T16:03:05.536Z,98868
2018-05-02T16:05:09.974Z,98869
2018-05-02T16:07:16.147Z,98868
2018-05-02T16:09:19.355Z,98856
2018-05-02T16:11:22.522Z,98858
2018-05-02T16:13:25.710Z,98857
2018-05-02T16:15:28.887Z,98858
2018-05-02T16:17:32.839Z,98853
2018-05-02T16:19:36.866Z,98860
2018-05-02T16:21:40.098Z,98843
2018-05-02T16:23:43.398Z,98850
2018-05-02T16:25:46.570Z,98848
2018-05-02T16:27:50.681Z,98844
2018-05-02T16:29:53.847Z,98845
2018-05-02T16:31:57.018Z,98838
2018-05-02T16:34:01.690Z,98846
2018-05-02T16:36:05.153Z,98846
2018-05-02T16:38:09.126Z,98849
2018-05-02T16:40:13.254Z,98845
2018-05-02T16:42:16.436Z,98847
2018-05-02T16:44:19.609Z,98840
2018-05-02T16:46:22.778Z,98839
2018-05-02T16:48:26.731Z,98851
2018-05-02T16:50:29.906Z,98860
2018-05-02T16:52:33.884Z,98847
2018-05-02T16:54:37.051Z,98853
2018-05-02T16:56:41.079Z,98861
2018-05-02T16:58:44.193Z,98866
2018-05-02T17:00:47.698Z,98857
2018-05-02T17:02:51.635Z,98853
2018-05-02T17:04:54.846Z,98858
2018-05-02T17:06:58.040Z,98860
2018-05-02T17:09:01.993Z,98859
2018-05-02T17:11:05.241Z,98862
2018-05-02T17:13:09.124Z,98863
2018-05-02T17:15:12.337Z,98869
2018-05-02T17:17:15.829Z,98868
2018-05-02T17:19:19.770Z,98868
2018-05-02T17:21:22.947Z,98867
2018-05-02T17:23:26.880Z,98863
2018-05-02T17:25:30.811Z,98861
2018-05-02T17:27:34.744Z,98872
2018-05-02T17:29:38.705Z,98868
2018-05-02T17:31:41.893Z,98868
2018-05-02T17:33:45.077Z,98873
2018-05-02T17:35:49.006Z,98868
2018-05-02T17:37:52.946Z,98869
2018-05-02T17:39:56.127Z,98874
2018-05-02T17:42:00.275Z,98875
2018-05-02T17:44:04.209Z,98882
2018-05-02T17:46:07.386Z,98876
2018-05-02T17:48:12.065Z,98877
2018-05-02T17:50:15.234Z,98887
2018-05-02T17:52:18.403Z,98882
2018-05-02T17:54:21.595Z,98882
2018-05-02T17:56:24.771Z,98879
2018-05-02T17:58:28.714Z,98888
2018-05-02T18:00:31.892Z,98883
2018-05-02T18:02:35.085Z,98888
2018-05-02T18:04:38.251Z,98900
2018-05-02T18:06:41.431Z,98891
2018-05-02T18:08:45.379Z,98903
2018-05-02T18:10:48.543Z,98890
2018-05-02T18:12:51.714Z,98896
2018-05-02T18:14:54.893Z,98885
2018-05-02T18:16:58.830Z,98899
2018-05-02T18:19:02.008Z,98892
2018-05-02T18:21:05.196Z,98893
2018-05-02T18:23:08.390Z,98896
2018-05-02T18:25:11.563Z,98896
2018-05-02T18:27:14.768Z,98895
2018-05-02T18:29:17.961Z,98892
2018-05-02T18:31:21.892Z,98898
2018-05-02T18:33:25.837Z,98902
2018-05-02T18:35:29.027Z,98896
2018-05-02T18:37:32.963Z,98904
2018-05-02T18:39:36.903Z,98909
2018-05-02T18:41:40.062Z,98912
2018-05-02T18:43:43.239Z,98912
2018-05-02T18:45:46.422Z,98916
2018-05-02T18:47:49.618Z,98918
2018-05-02T18:49:54.444Z,98921
2018-05-02T18:51:58.395Z,98917
2018-05-02T18:54:01.572Z,98918
2018-05-02T18:56:05.529Z,98919
2018-05-02T18:58:09.099Z,98921
2018-05-02T19:00:12.315Z,98919
2018-05-02T19:02:15.494Z,98925
2018-05-02T19:04:18.981Z,98929
2018-05-02T19:06:22.164Z,98930
2018-05-02T19:08:26.112Z,98937
2018-05-02T19:10:30.063Z,98924
2018-05-02T19:12:33.269Z,98931
2018-05-02T19:14:36.445Z,98932
2018-05-02T19:16:40.395Z,98937
2018-05-02T19:18:49.074Z,98940
2018-05-02T19:20:52.243Z,98933
2018-05-02T19:22:55.424Z,98930
2018-05-02T19:25:04.807Z,98939
2018-05-02T19:27:08.074Z,98943
2018-05-02T19:29:12.024Z,98945
2018-05-02T19:33:54.606Z,98944
2018-05-02T19:35:57.790Z,98949
2018-05-02T19:38:01.070Z,98949
2018-05-02T19:40:10.719Z,98956
2018-05-02T19:42:20.391Z,98964
2018-05-02T19:44:24.379Z,98955
2018-05-02T19:46:27.528Z,98956
2018-05-02T19:48:31.034Z,98961
2018-05-02T19:50:34.983Z,98957
2018-05-02T19:52:43.717Z,98961
2018-05-02T19:54:46.912Z,98960
2018-05-02T19:56:51.139Z,98967
2018-05-02T19:58:55.075Z,98961
2018-05-02T20:01:03.866Z,98960
2018-05-02T20:03:07.212Z,98960
2018-05-02T20:05:11.159Z,98962
2018-05-02T20:07:20.289Z,98965
2018-05-02T20:09:28.923Z,98964
2018-05-02T20:11:37.795Z,98962
2018-05-02T20:13:46.635Z,98972
2018-05-02T20:15:49.828Z,98970
2018-05-02T20:17:53.002Z,98973
2018-05-02T20:19:56.941Z,98975
2018-05-02T20:22:01.087Z,98976
2018-05-02T20:24:04.351Z,98983
2018-05-02T20:26:08.632Z,98977
2018-05-02T20:28:11.934Z,98982
2018-05-02T20:30:15.120Z,98977
2018-05-02T20:32:19.088Z,98983
2018-05-02T20:34:22.816Z,98979
2018-05-02T20:36:26.869Z,98983
2018-05-02T20:38:30.019Z,98988
2018-05-02T20:40:33.204Z,98982
2018-05-02T20:42:37.137Z,98989
2018-05-02T20:44:41.079Z,98982
2018-05-02T20:46:44.259Z,98977
2018-05-02T20:48:47.442Z,98983
2018-05-02T20:50:50.615Z,98976
2018-05-02T20:52:53.808Z,98986
2018-05-02T20:54:57.224Z,98975
2018-05-02T20:57:00.311Z,98983
2018-05-02T20:59:04.266Z,98979
2018-05-02T21:01:08.272Z,98990
2018-05-02T21:03:12.298Z,98992
2018-05-02T21:05:16.249Z,98988
2018-05-02T21:07:19.422Z,98980
2018-05-02T21:09:22.596Z,98986
2018-05-02T21:11:25.778Z,98984
2018-05-02T21:13:28.959Z,98983
2018-05-02T21:15:32.903Z,98980
2018-05-02T21:17:36.079Z,98975
2018-05-02T21:19:39.256Z,98977
2018-05-02T21:21:42.448Z,98977
2018-05-02T21:23:45.630Z,98981
2018-05-02T21:25:48.803Z,98986
2018-05-02T21:27:51.984Z,98980
2018-05-02T21:29:55.165Z,98980
2018-05-02T21:31:58.335Z,98985
2018-05-02T21:34:01.519Z,98992
2018-05-02T21:36:04.702Z,98984
2018-05-02T21:38:07.874Z,98999
2018-05-02T21:40:11.811Z,98983
2018-05-02T21:42:15.319Z,98999
2018-05-02T21:44:19.268Z,98996
2018-05-02T21:46:22.438Z,99003
2018-05-02T21:48:25.611Z,99002
2018-05-02T21:50:28.898Z,99009
2018-05-02T21:52:36.234Z,99005
2018-05-02T21:54:40.536Z,99004
2018-05-02T21:56:43.818Z,99015
2018-05-02T21:58:47.780Z,99011
2018-05-02T22:00:50.955Z,99017
2018-05-02T22:02:54.887Z,99020
2018-05-02T22:04:58.063Z,99018
2018-05-02T22:07:01.235Z,99010
2018-05-02T22:09:04.403Z,99011
2018-05-02T22:11:08.335Z,99020
2018-05-02T22:13:11.522Z,99016
2018-05-02T22:15:15.483Z,99012
2018-05-02T22:17:18.651Z,99016
2018-05-02T22:19:21.825Z,99025
2018-05-02T22:21:24.991Z,99018
2018-05-02T22:23:28.933Z,99011
2018-05-02T22:25:32.168Z,99015
2018-05-02T22:27:35.351Z,99024
2018-05-02T22:29:38.521Z,99019
2018-05-02T22:31:41.698Z,99031
2018-05-02T22:33:44.875Z,99029
2018-05-02T22:35:48.162Z,99031
2018-05-02T22:37:52.497Z,99035
2018-05-02T22:39:56.438Z,99042
2018-05-02T22:41:59.634Z,99036
2018-05-02T22:44:03.578Z,99040
2018-05-02T22:46:06.870Z,99038
2018-05-02T22:48:10.832Z,99036
2018-05-02T22:50:13.998Z,99041
2018-05-02T22:52:17.942Z,99030
2018-05-02T22:54:21.116Z,99039
2018-05-02T22:56:24.473Z,99033
2018-05-02T22:58:28.254Z,99044
2018-05-02T23:00:31.414Z,99027
2018-05-02T23:02:34.973Z,99051
2018-05-02T23:04:38.106Z,99051
2018-05-02T23:06:42.130Z,99051
2018-05-02T23:08:46.055Z,99041
2018-05-02T23:10:49.994Z,99051
2018-05-02T23:12:53.162Z,99043
2018-05-02T23:14:57.098Z,99047
2018-05-02T23:17:00.275Z,99041
2018-05-02T23:19:03.466Z,99047
2018-05-02T23:21:06.659Z,99054
2018-05-02T23:23:09.829Z,99056
2018-05-02T23:25:13.781Z,99050
2018-05-02T23:27:17.711Z,99057
2018-05-02T23:29:20.918Z,99055
2018-05-02T23:31:25.038Z,99059
2018-05-02T23:33:29.210Z,99048
2018-05-02T23:35:32.371Z,99054
2018-05-02T23:37:36.317Z,99054
2018-05-02T23:39:39.507Z,99054
2018-05-02T23:41:43.466Z,99047
2018-05-02T23:43:47.722Z,99049
2018-05-02T23:45:50.907Z,99043
2018-05-02T23:47:54.091Z,99030
2018-05-02T23:49:57.278Z,99031
2018-05-02T23:52:00.467Z,99038
2018-05-02T23:54:03.652Z,99031
2018-05-02T23:56:06.831Z,99023
2018-05-02T23:58:10.000Z,99026
